Galice, Oregon
Current Conditions -  °F | °C
As of 9:56 PM on Sunday 25 Jan 2015 (Local Time) from KSXT Reporting Station
Clear Clear  
Wind Chill: 57°   Ceiling: Unl
Heat Index: 57°   Visibility: 10mi
Dew Point: 36°   Wind: 10mph
Humidity: 45%   Direction: 130°SE
Pressure: 30.1"   Gusts: NA
Location:  42.5504°N, 123.448°W
Report Text: KSXT 260556Z AUTO 13009KT 10SM CLR 14/02 A3010 RMK AO2 SLP162 T01390022 10183 20133 53004
Loading
Personal Weather Stations






























Interactive Weather Map New forecast layout! Learn more

10-Day Weather Forecast

Advertisements
Track Severe Weather on mobile